sensor_id;sensor_type;location;lat;lon;timestamp;pressure;altitude;pressure_sealevel;temperature;humidity
64713;BME280;51140;45.340;5.980;2023-02-18T00:00:06;99289.69;;;6.62;100.00
64713;BME280;51140;45.340;5.980;2023-02-18T00:02:32;99298.34;;;6.61;100.00
64713;BME280;51140;45.340;5.980;2023-02-18T00:04:58;99302.63;;;6.62;100.00
64713;BME280;51140;45.340;5.980;2023-02-18T00:07:23;99306.13;;;6.59;100.00
64713;BME280;51140;45.340;5.980;2023-02-18T00:09:48;99310.50;;;6.56;100.00
64713;BME280;51140;45.340;5.980;2023-02-18T00:12:14;99302.81;;;6.51;100.00
64713;BME280;51140;45.340;5.980;2023-02-18T00:14:39;99307.13;;;6.52;100.00
64713;BME280;51140;45.340;5.980;2023-02-18T00:17:05;99306.31;;;6.49;100.00
64713;BME280;51140;45.340;5.980;2023-02-18T00:19:30;99303.75;;;6.47;100.00
64713;BME280;51140;45.340;5.980;2023-02-18T00:21:55;99302.94;;;6.45;100.00
64713;BME280;51140;45.340;5.980;2023-02-18T00:24:21;99292.63;;;6.42;100.00
64713;BME280;51140;45.340;5.980;2023-02-18T00:26:49;99290.06;;;6.39;100.00
64713;BME280;51140;45.340;5.980;2023-02-18T00:29:15;99297.03;;;6.36;100.00
64713;BME280;51140;45.340;5.980;2023-02-18T00:31:41;99298.78;;;6.34;100.00
64713;BME280;51140;45.340;5.980;2023-02-18T00:34:06;99299.72;;;6.29;100.00
64713;BME280;51140;45.340;5.980;2023-02-18T00:36:32;99299.75;;;6.28;100.00
64713;BME280;51140;45.340;5.980;2023-02-18T00:39:00;99313.63;;;6.24;100.00
64713;BME280;51140;45.340;5.980;2023-02-18T00:41:27;99308.50;;;6.19;100.00
64713;BME280;51140;45.340;5.980;2023-02-18T00:43:53;99311.16;;;6.16;100.00
64713;BME280;51140;45.340;5.980;2023-02-18T00:46:20;99312.91;;;6.14;100.00
64713;BME280;51140;45.340;5.980;2023-02-18T00:48:45;99319.84;;;6.12;100.00
64713;BME280;51140;45.340;5.980;2023-02-18T00:51:11;99313.81;;;6.12;100.00
64713;BME280;51140;45.340;5.980;2023-02-18T00:53:37;99328.47;;;6.11;100.00
64713;BME280;51140;45.340;5.980;2023-02-18T00:56:03;99319.88;;;6.09;100.00
64713;BME280;51140;45.340;5.980;2023-02-18T00:58:28;99319.91;;;6.08;100.00
64713;BME280;51140;45.340;5.980;2023-02-18T01:00:55;99319.94;;;6.06;100.00
64713;BME280;51140;45.340;5.980;2023-02-18T01:03:20;99314.78;;;6.05;100.00
64713;BME280;51140;45.340;5.980;2023-02-18T01:05:49;99326.88;;;6.04;100.00
64713;BME280;51140;45.340;5.980;2023-02-18T01:08:16;99320.00;;;6.02;100.00
64713;BME280;51140;45.340;5.980;2023-02-18T01:10:47;99326.88;;;6.03;100.00
64713;BME280;51140;45.340;5.980;2023-02-18T01:13:14;99324.31;;;6.00;100.00
64713;BME280;51140;45.340;5.980;2023-02-18T01:15:41;99326.03;;;5.99;100.00
64713;BME280;51140;45.340;5.980;2023-02-18T01:18:07;99323.47;;;5.99;100.00
64713;BME280;51140;45.340;5.980;2023-02-18T01:20:37;99326.06;;;6.01;100.00
64713;BME280;51140;45.340;5.980;2023-02-18T01:23:04;99321.72;;;6.00;100.00
64713;BME280;51140;45.340;5.980;2023-02-18T01:25:30;99319.16;;;6.01;100.00
64713;BME280;51140;45.340;5.980;2023-02-18T01:27:55;99320.88;;;5.99;100.00
64713;BME280;51140;45.340;5.980;2023-02-18T01:30:21;99309.69;;;5.98;100.00
64713;BME280;51140;45.340;5.980;2023-02-18T01:32:47;99310.56;;;5.96;100.00
64713;BME280;51140;45.340;5.980;2023-02-18T01:35:15;99302.00;;;5.94;100.00
64713;BME280;51140;45.340;5.980;2023-02-18T01:37:40;99304.63;;;5.91;100.00
64713;BME280;51140;45.340;5.980;2023-02-18T01:40:09;99300.31;;;5.91;100.00
64713;BME280;51140;45.340;5.980;2023-02-18T01:42:34;99297.75;;;5.90;100.00
64713;BME280;51140;45.340;5.980;2023-02-18T01:48:11;99294.28;;;5.88;100.00
64713;BME280;51140;45.340;5.980;2023-02-18T01:50:43;99300.31;;;5.88;100.00
64713;BME280;51140;45.340;5.980;2023-02-18T01:53:09;99307.22;;;5.89;100.00
64713;BME280;51140;45.340;5.980;2023-02-18T01:55:37;99298.59;;;5.89;100.00
64713;BME280;51140;45.340;5.980;2023-02-18T01:58:03;99296.91;;;5.86;100.00
64713;BME280;51140;45.340;5.980;2023-02-18T02:00:29;99295.19;;;5.85;100.00
64713;BME280;51140;45.340;5.980;2023-02-18T02:02:56;99295.25;;;5.81;100.00
64713;BME280;51140;45.340;5.980;2023-02-18T02:05:22;99301.25;;;5.83;100.00
64713;BME280;51140;45.340;5.980;2023-02-18T02:07:50;99298.72;;;5.80;100.00
64713;BME280;51140;45.340;5.980;2023-02-18T02:10:18;99298.75;;;5.77;100.00
64713;BME280;51140;45.340;5.980;2023-02-18T02:13:16;99308.28;;;5.75;100.00
64713;BME280;51140;45.340;5.980;2023-02-18T02:15:57;99310.88;;;5.73;100.00
64713;BME280;51140;45.340;5.980;2023-02-18T02:18:46;99319.50;;;5.74;100.00
64713;BME280;51140;45.340;5.980;2023-02-18T02:30:29;99308.44;;;5.62;100.00
64713;BME280;51140;45.340;5.980;2023-02-18T02:48:58;99314.56;;;5.54;100.00
64713;BME280;51140;45.340;5.980;2023-02-18T02:53:52;99303.34;;;5.55;100.00
64713;BME280;51140;45.340;5.980;2023-02-18T02:56:20;99309.38;;;5.55;100.00
64713;BME280;51140;45.340;5.980;2023-02-18T02:59:02;99306.84;;;5.52;100.00
64713;BME280;51140;45.340;5.980;2023-02-18T03:07:06;99309.47;;;5.48;100.00
64713;BME280;51140;45.340;5.980;2023-02-18T03:20:22;99307.84;;;5.41;100.00
64713;BME280;51140;45.340;5.980;2023-02-18T03:22:52;99306.22;;;5.33;100.00
64713;BME280;51140;45.340;5.980;2023-02-18T03:25:19;99302.91;;;5.24;100.00
64713;BME280;51140;45.340;5.980;2023-02-18T03:27:52;99303.84;;;5.14;100.00
64713;BME280;51140;45.340;5.980;2023-02-18T03:30:42;99299.69;;;5.02;100.00
64713;BME280;51140;45.340;5.980;2023-02-18T03:33:14;99304.13;;;4.89;100.00
64713;BME280;51140;45.340;5.980;2023-02-18T03:35:42;99306.81;;;4.82;100.00
64713;BME280;51140;45.340;5.980;2023-02-18T03:38:18;99305.09;;;4.81;100.00
64713;BME280;51140;45.340;5.980;2023-02-18T03:40:46;99314.56;;;4.82;100.00
64713;BME280;51140;45.340;5.980;2023-02-18T03:43:11;99320.59;;;4.81;100.00
64713;BME280;51140;45.340;5.980;2023-02-18T03:45:37;99334.31;;;4.86;100.00
64713;BME280;51140;45.340;5.980;2023-02-18T03:48:02;99340.31;;;4.86;100.00
64713;BME280;51140;45.340;5.980;2023-02-18T03:50:28;99360.09;;;4.89;100.00
64713;BME280;51140;45.340;5.980;2023-02-18T03:52:53;99364.38;;;4.91;100.00
64713;BME280;51140;45.340;5.980;2023-02-18T03:55:19;99368.63;;;4.94;100.00
64713;BME280;51140;45.340;5.980;2023-02-18T03:57:44;99378.06;;;4.98;100.00
64713;BME280;51140;45.340;5.980;2023-02-18T04:00:10;99377.19;;;5.00;100.00
64713;BME280;51140;45.340;5.980;2023-02-18T04:02:35;99384.03;;;5.03;100.00
64713;BME280;51140;45.340;5.980;2023-02-18T04:05:01;99385.72;;;5.06;100.00
64713;BME280;51140;45.340;5.980;2023-02-18T04:07:27;99391.75;;;5.08;100.00
64713;BME280;51140;45.340;5.980;2023-02-18T04:09:52;99389.13;;;5.09;100.00
64713;BME280;51140;45.340;5.980;2023-02-18T04:12:18;99379.69;;;5.07;100.00
64713;BME280;51140;45.340;5.980;2023-02-18T04:14:43;99382.25;;;5.08;100.00
64713;BME280;51140;45.340;5.980;2023-02-18T04:17:09;99377.09;;;5.10;100.00
64713;BME280;51140;45.340;5.980;2023-02-18T04:19:34;99388.28;;;5.09;100.00
64713;BME280;51140;45.340;5.980;2023-02-18T04:22:00;99380.53;;;5.10;100.00
64713;BME280;51140;45.340;5.980;2023-02-18T04:24:26;99378.78;;;5.11;100.00
64713;BME280;51140;45.340;5.980;2023-02-18T04:26:51;99383.09;;;5.12;100.00
64713;BME280;51140;45.340;5.980;2023-02-18T04:29:17;99385.63;;;5.15;100.00
64713;BME280;51140;45.340;5.980;2023-02-18T04:31:42;99385.63;;;5.16;100.00
64713;BME280;51140;45.340;5.980;2023-02-18T04:34:07;99393.38;;;5.16;100.00
64713;BME280;51140;45.340;5.980;2023-02-18T04:36:33;99395.94;;;5.16;100.00
64713;BME280;51140;45.340;5.980;2023-02-18T04:38:58;99402.81;;;5.19;100.00
64713;BME280;51140;45.340;5.980;2023-02-18T04:41:24;99402.81;;;5.22;100.00
64713;BME280;51140;45.340;5.980;2023-02-18T04:43:49;99401.97;;;5.21;100.00
64713;BME280;51140;45.340;5.980;2023-02-18T04:46:15;99412.25;;;5.26;100.00
64713;BME280;51140;45.340;5.980;2023-02-18T04:48:40;99405.31;;;5.28;100.00
64713;BME280;51140;45.340;5.980;2023-02-18T04:51:06;99404.47;;;5.27;100.00
64713;BME280;51140;45.340;5.980;2023-02-18T04:53:32;99396.66;;;5.32;100.00
64713;BME280;51140;45.340;5.980;2023-02-18T04:55:57;99400.94;;;5.34;100.00
64713;BME280;51140;45.340;5.980;2023-02-18T04:58:23;99402.72;;;5.31;100.00
64713;BME280;51140;45.340;5.980;2023-02-18T05:00:49;99403.63;;;5.27;100.00
64713;BME280;51140;45.340;5.980;2023-02-18T05:03:14;99400.22;;;5.23;100.00
64713;BME280;51140;45.340;5.980;2023-02-18T05:05:40;99408.00;;;5.20;100.00
64713;BME280;51140;45.340;5.980;2023-02-18T05:08:06;99407.97;;;5.23;100.00
64713;BME280;51140;45.340;5.980;2023-02-18T05:10:33;99413.09;;;5.28;100.00
64713;BME280;51140;45.340;5.980;2023-02-18T05:12:58;99402.72;;;5.29;100.00
64713;BME280;51140;45.340;5.980;2023-02-18T05:15:24;99409.56;;;5.33;100.00
64713;BME280;51140;45.340;5.980;2023-02-18T05:17:49;99410.38;;;5.37;100.00
64713;BME280;51140;45.340;5.980;2023-02-18T05:20:15;99412.97;;;5.37;100.00
64713;BME280;51140;45.340;5.980;2023-02-18T05:22:40;99417.25;;;5.41;100.00
64713;BME280;51140;45.340;5.980;2023-02-18T05:25:06;99416.38;;;5.41;100.00
64713;BME280;51140;45.340;5.980;2023-02-18T05:27:31;99412.97;;;5.39;100.00
64713;BME280;51140;45.340;5.980;2023-02-18T05:29:57;99416.41;;;5.39;100.00
64713;BME280;51140;45.340;5.980;2023-02-18T05:32:22;99404.31;;;5.41;100.00
64713;BME280;51140;45.340;5.980;2023-02-18T05:34:48;99406.91;;;5.41;100.00
64713;BME280;51140;45.340;5.980;2023-02-18T05:37:13;99406.88;;;5.44;100.00
64713;BME280;51140;45.340;5.980;2023-02-18T05:39:40;99394.78;;;5.46;100.00
64713;BME280;51140;45.340;5.980;2023-02-18T05:42:06;99390.50;;;5.44;100.00
64713;BME280;51140;45.340;5.980;2023-02-18T05:44:31;99370.72;;;5.41;100.00
64713;BME280;51140;45.340;5.980;2023-02-18T05:47:03;99353.53;;;5.37;100.00
64713;BME280;51140;45.340;5.980;2023-02-18T05:49:31;99344.06;;;5.38;100.00
64713;BME280;51140;45.340;5.980;2023-02-18T05:51:57;99336.38;;;5.33;100.00
64713;BME280;51140;45.340;5.980;2023-02-18T05:54:23;99332.09;;;5.30;100.00
64713;BME280;51140;45.340;5.980;2023-02-18T05:56:48;99322.72;;;5.22;100.00
64713;BME280;51140;45.340;5.980;2023-02-18T05:59:14;99327.03;;;5.18;100.00
64713;BME280;51140;45.340;5.980;2023-02-18T06:01:40;99330.53;;;5.16;100.00
64713;BME280;51140;45.340;5.980;2023-02-18T06:04:05;99322.81;;;5.11;100.00
64713;BME280;51140;45.340;5.980;2023-02-18T06:06:31;99328.91;;;5.06;100.00
64713;BME280;51140;45.340;5.980;2023-02-18T06:08:56;99333.31;;;4.97;100.00
64713;BME280;51140;45.340;5.980;2023-02-18T06:11:22;99341.09;;;4.94;100.00
64713;BME280;51140;45.340;5.980;2023-02-18T06:13:48;99348.81;;;4.96;100.00
64713;BME280;51140;45.340;5.980;2023-02-18T06:16:13;99356.63;;;4.91;100.00
64713;BME280;51140;45.340;5.980;2023-02-18T06:18:39;99366.16;;;4.83;100.00
64713;BME280;51140;45.340;5.980;2023-02-18T06:21:04;99367.03;;;4.84;100.00
64713;BME280;51140;45.340;5.980;2023-02-18T06:23:30;99387.63;;;4.88;100.00
64713;BME280;51140;45.340;5.980;2023-02-18T06:25:55;99408.28;;;4.90;100.00
64713;BME280;51140;45.340;5.980;2023-02-18T06:28:21;99423.75;;;4.91;100.00
64713;BME280;51140;45.340;5.980;2023-02-18T06:30:46;99432.34;;;4.93;100.00
64713;BME280;51140;45.340;5.980;2023-02-18T06:33:12;99440.03;;;4.98;100.00
64713;BME280;51140;45.340;5.980;2023-02-18T06:35:38;99445.16;;;5.02;100.00
64713;BME280;51140;45.340;5.980;2023-02-18T06:38:03;99445.13;;;5.06;100.00
64713;BME280;51140;45.340;5.980;2023-02-18T06:40:29;99454.59;;;5.07;100.00
64713;BME280;51140;45.340;5.980;2023-02-18T06:42:54;99472.66;;;5.10;100.00
64713;BME280;51140;45.340;5.980;2023-02-18T06:45:20;99479.50;;;5.14;100.00
64713;BME280;51140;45.340;5.980;2023-02-18T06:47:46;99489.78;;;5.17;100.00
64713;BME280;51140;45.340;5.980;2023-02-18T06:50:11;99498.38;;;5.19;100.00
64713;BME280;51140;45.340;5.980;2023-02-18T06:52:37;99499.25;;;5.22;100.00
64713;BME280;51140;45.340;5.980;2023-02-18T06:55:06;99500.94;;;5.25;100.00
64713;BME280;51140;45.340;5.980;2023-02-18T06:57:33;99494.03;;;5.27;100.00
64713;BME280;51140;45.340;5.980;2023-02-18T06:59:59;99491.44;;;5.30;100.00
64713;BME280;51140;45.340;5.980;2023-02-18T07:02:26;99475.03;;;5.34;100.00
64713;BME280;51140;45.340;5.980;2023-02-18T07:04:51;99474.16;;;5.35;100.00
64713;BME280;51140;45.340;5.980;2023-02-18T07:07:17;99469.03;;;5.30;100.00
64713;BME280;51140;45.340;5.980;2023-02-18T07:09:42;99460.41;;;5.30;100.00
64713;BME280;51140;45.340;5.980;2023-02-18T07:12:08;99462.13;;;5.31;100.00
64713;BME280;51140;45.340;5.980;2023-02-18T07:14:33;99450.94;;;5.32;100.00
64713;BME280;51140;45.340;5.980;2023-02-18T07:16:59;99444.03;;;5.32;100.00
64713;BME280;51140;45.340;5.980;2023-02-18T07:19:24;99446.63;;;5.32;100.00
64713;BME280;51140;45.340;5.980;2023-02-18T07:21:49;99436.28;;;5.32;100.00
64713;BME280;51140;45.340;5.980;2023-02-18T07:24:15;99418.25;;;5.28;100.00
64713;BME280;51140;45.340;5.980;2023-02-18T07:26:41;99406.19;;;5.28;100.00
64713;BME280;51140;45.340;5.980;2023-02-18T07:29:06;99407.03;;;5.29;100.00
64713;BME280;51140;45.340;5.980;2023-02-18T07:31:31;99408.78;;;5.27;100.00
64713;BME280;51140;45.340;5.980;2023-02-18T07:33:57;99410.53;;;5.25;100.00
64713;BME280;51140;45.340;5.980;2023-02-18T07:36:22;99417.41;;;5.24;100.00
64713;BME280;51140;45.340;5.980;2023-02-18T07:38:48;99420.03;;;5.23;100.00
64713;BME280;51140;45.340;5.980;2023-02-18T07:41:17;99402.81;;;5.20;100.00
64713;BME280;51140;45.340;5.980;2023-02-18T07:43:43;99404.53;;;5.18;100.00
64713;BME280;51140;45.340;5.980;2023-02-18T07:46:08;99387.38;;;5.14;100.00
64713;BME280;51140;45.340;5.980;2023-02-18T07:48:34;99387.44;;;5.08;100.00
64713;BME280;51140;45.340;5.980;2023-02-18T07:51:00;99385.78;;;5.01;100.00
64713;BME280;51140;45.340;5.980;2023-02-18T07:53:25;99381.50;;;4.98;100.00
64713;BME280;51140;45.340;5.980;2023-02-18T07:55:50;99384.06;;;5.00;100.00
64713;BME280;51140;45.340;5.980;2023-02-18T07:58:27;99394.41;;;5.00;100.00
64713;BME280;51140;45.340;5.980;2023-02-18T08:00:53;99405.59;;;5.00;100.00
64713;BME280;51140;45.340;5.980;2023-02-18T08:03:21;99414.16;;;5.02;100.00
64713;BME280;51140;45.340;5.980;2023-02-18T08:05:48;99417.63;;;5.01;100.00
64713;BME280;51140;45.340;5.980;2023-02-18T08:08:16;99418.47;;;5.02;100.00
64713;BME280;51140;45.340;5.980;2023-02-18T08:10:44;99433.13;;;5.01;100.00
64713;BME280;51140;45.340;5.980;2023-02-18T08:13:10;99436.53;;;5.03;100.00
64713;BME280;51140;45.340;5.980;2023-02-18T08:15:35;99444.25;;;5.07;100.00
64713;BME280;51140;45.340;5.980;2023-02-18T08:18:01;99451.13;;;5.08;100.00
64713;BME280;51140;45.340;5.980;2023-02-18T08:20:27;99458.00;;;5.09;100.00
64713;BME280;51140;45.340;5.980;2023-02-18T08:22:52;99457.16;;;5.08;100.00
64713;BME280;51140;45.340;5.980;2023-02-18T08:25:18;99465.81;;;5.02;100.00
64713;BME280;51140;45.340;5.980;2023-02-18T08:27:43;99452.94;;;5.01;100.00
64713;BME280;51140;45.340;5.980;2023-02-18T08:30:09;99450.31;;;5.02;100.00
64713;BME280;51140;45.340;5.980;2023-02-18T08:32:35;99451.16;;;5.04;100.00
64713;BME280;51140;45.340;5.980;2023-02-18T08:35:01;99452.03;;;5.03;100.00
64713;BME280;51140;45.340;5.980;2023-02-18T08:37:27;99454.63;;;5.03;100.00
64713;BME280;51140;45.340;5.980;2023-02-18T08:39:52;99453.75;;;5.04;100.00
64713;BME280;51140;45.340;5.980;2023-02-18T08:42:18;99466.66;;;5.06;100.00
64713;BME280;51140;45.340;5.980;2023-02-18T08:44:43;99468.38;;;5.07;100.00
64713;BME280;51140;45.340;5.980;2023-02-18T08:47:10;99470.06;;;5.08;100.00
64713;BME280;51140;45.340;5.980;2023-02-18T08:49:35;99475.22;;;5.10;100.00
64713;BME280;51140;45.340;5.980;2023-02-18T08:52:04;99477.81;;;5.10;100.00
64713;BME280;51140;45.340;5.980;2023-02-18T08:54:30;99485.56;;;5.08;100.00
64713;BME280;51140;45.340;5.980;2023-02-18T08:56:56;99488.16;;;5.08;100.00
64713;BME280;51140;45.340;5.980;2023-02-18T08:59:23;99495.03;;;5.09;100.00
64713;BME280;51140;45.340;5.980;2023-02-18T09:01:48;99495.00;;;5.12;100.00
64713;BME280;51140;45.340;5.980;2023-02-18T09:04:14;99498.44;;;5.14;100.00
64713;BME280;51140;45.340;5.980;2023-02-18T09:06:39;99505.28;;;5.18;100.00
64713;BME280;51140;45.340;5.980;2023-02-18T09:09:05;99504.41;;;5.22;100.00
64713;BME280;51140;45.340;5.980;2023-02-18T09:11:30;99507.81;;;5.26;100.00
64713;BME280;51140;45.340;5.980;2023-02-18T09:13:56;99509.53;;;5.28;100.00
64713;BME280;51140;45.340;5.980;2023-02-18T09:16:21;99507.78;;;5.32;100.00
64713;BME280;51140;45.340;5.980;2023-02-18T09:18:48;99517.19;;;5.36;100.00
64713;BME280;51140;45.340;5.980;2023-02-18T09:21:16;99526.63;;;5.40;100.00
64713;BME280;51140;45.340;5.980;2023-02-18T09:23:43;99518.00;;;5.43;100.00
64713;BME280;51140;45.340;5.980;2023-02-18T09:26:10;99532.63;;;5.45;100.00
64713;BME280;51140;45.340;5.980;2023-02-18T09:28:37;99534.31;;;5.49;100.00
64713;BME280;51140;45.340;5.980;2023-02-18T09:31:16;99529.09;;;5.52;100.00
64713;BME280;51140;45.340;5.980;2023-02-18T09:33:47;99534.25;;;5.55;100.00
64713;BME280;51140;45.340;5.980;2023-02-18T09:36:13;99529.91;;;5.57;100.00
64713;BME280;51140;45.340;5.980;2023-02-18T09:38:39;99529.03;;;5.61;100.00
64713;BME280;51140;45.340;5.980;2023-02-18T09:41:08;99524.69;;;5.66;100.00
64713;BME280;51140;45.340;5.980;2023-02-18T09:43:41;99522.06;;;5.70;100.00
64713;BME280;51140;45.340;5.980;2023-02-18T09:46:19;99520.28;;;5.76;100.00
64713;BME280;51140;45.340;5.980;2023-02-18T09:48:47;99520.19;;;5.82;100.00
64713;BME280;51140;45.340;5.980;2023-02-18T09:51:14;99520.16;;;5.90;100.00
64713;BME280;51140;45.340;5.980;2023-02-18T09:53:41;99526.09;;;5.96;100.00
64713;BME280;51140;45.340;5.980;2023-02-18T09:56:14;99538.97;;;6.04;100.00
64713;BME280;51140;45.340;5.980;2023-02-18T09:58:42;99541.47;;;6.12;100.00
64713;BME280;51140;45.340;5.980;2023-02-18T10:01:27;99554.22;;;6.25;100.00
64713;BME280;51140;45.340;5.980;2023-02-18T10:03:57;99548.88;;;6.39;100.00
64713;BME280;51140;45.340;5.980;2023-02-18T10:06:25;99534.81;;;6.60;100.00
64713;BME280;51140;45.340;5.980;2023-02-18T10:08:53;99519.81;;;6.85;100.00
64713;BME280;51140;45.340;5.980;2023-02-18T10:11:31;99504.69;;;7.13;100.00
64713;BME280;51140;45.340;5.980;2023-02-18T10:13:58;99461.84;;;7.43;100.00
64713;BME280;51140;45.340;5.980;2023-02-18T10:16:28;99376.06;;;8.35;100.00
64713;BME280;51140;45.340;5.980;2023-02-18T10:18:59;99262.00;;;8.96;100.00
64713;BME280;51140;45.340;5.980;2023-02-18T10:21:31;99187.28;;;9.33;100.00
64713;BME280;51140;45.340;5.980;2023-02-18T10:24:24;99129.72;;;9.72;100.00
64713;BME280;51140;45.340;5.980;2023-02-18T10:26:49;99073.13;;;10.03;100.00
64713;BME280;51140;45.340;5.980;2023-02-18T10:29:17;99046.69;;;10.41;100.00
64713;BME280;51140;45.340;5.980;2023-02-18T10:31:45;99024.13;;;10.63;100.00
64713;BME280;51140;45.340;5.980;2023-02-18T10:34:42;99002.72;;;10.77;100.00
64713;BME280;51140;45.340;5.980;2023-02-18T10:39:55;98997.88;;;11.33;100.00
64713;BME280;51140;45.340;5.980;2023-02-18T10:45:04;98981.97;;;11.59;100.00
64713;BME280;51140;45.340;5.980;2023-02-18T10:47:38;98973.19;;;11.82;100.00
64713;BME280;51140;45.340;5.980;2023-02-18T10:50:25;98981.16;;;11.79;100.00
64713;BME280;51140;45.340;5.980;2023-02-18T10:52:55;98957.91;;;11.93;100.00
64713;BME280;51140;45.340;5.980;2023-02-18T10:55:35;98957.09;;;12.12;100.00
64713;BME280;51140;45.340;5.980;2023-02-18T10:58:01;98955.13;;;12.17;100.00
64713;BME280;51140;45.340;5.980;2023-02-18T11:00:34;98949.06;;;12.35;100.00
64713;BME280;51140;45.340;5.980;2023-02-18T11:05:37;98951.72;;;12.34;100.00
64713;BME280;51140;45.340;5.980;2023-02-18T11:08:06;98953.50;;;12.33;100.00
64713;BME280;51140;45.340;5.980;2023-02-18T11:10:34;98951.59;;;12.55;100.00
64713;BME280;51140;45.340;5.980;2023-02-18T11:13:05;98949.53;;;12.62;100.00
64713;BME280;51140;45.340;5.980;2023-02-18T11:15:31;98948.31;;;12.69;100.00
64713;BME280;51140;45.340;5.980;2023-02-18T11:18:12;98952.00;;;12.84;100.00
64713;BME280;51140;45.340;5.980;2023-02-18T11:20:38;98964.63;;;12.93;100.00
64713;BME280;51140;45.340;5.980;2023-02-18T11:25:37;99055.75;;;12.83;100.00
64713;BME280;51140;45.340;5.980;2023-02-18T11:28:04;99008.97;;;13.13;100.00
64713;BME280;51140;45.340;5.980;2023-02-18T11:33:10;98963.69;;;13.47;100.00
64713;BME280;51140;45.340;5.980;2023-02-18T11:35:53;99052.94;;;13.60;100.00
64713;BME280;51140;45.340;5.980;2023-02-18T11:38:28;99086.78;;;14.17;100.00
64713;BME280;51140;45.340;5.980;2023-02-18T11:41:14;99071.00;;;14.51;100.00
64713;BME280;51140;45.340;5.980;2023-02-18T11:43:42;99140.13;;;14.83;100.00
64713;BME280;51140;45.340;5.980;2023-02-18T11:46:19;99096.47;;;15.14;100.00
64713;BME280;51140;45.340;5.980;2023-02-18T11:48:46;99094.34;;;15.52;100.00
64713;BME280;51140;45.340;5.980;2023-02-18T11:54:00;99278.56;;;16.09;100.00
64713;BME280;51140;45.340;5.980;2023-02-18T11:56:31;99339.41;;;15.70;100.00
64713;BME280;51140;45.340;5.980;2023-02-18T11:58:58;99310.34;;;15.88;100.00
64713;BME280;51140;45.340;5.980;2023-02-18T12:01:37;99313.75;;;16.22;100.00
64713;BME280;51140;45.340;5.980;2023-02-18T12:04:20;99336.78;;;16.33;100.00
64713;BME280;51140;45.340;5.980;2023-02-18T12:07:10;99336.97;;;15.98;100.00
64713;BME280;51140;45.340;5.980;2023-02-18T12:09:43;99309.59;;;15.86;100.00
64713;BME280;51140;45.340;5.980;2023-02-18T12:12:18;99286.34;;;15.79;100.00
64713;BME280;51140;45.340;5.980;2023-02-18T12:14:48;99275.44;;;15.86;100.00
64713;BME280;51140;45.340;5.980;2023-02-18T12:20:40;99242.03;;;15.73;100.00
64713;BME280;51140;45.340;5.980;2023-02-18T12:28:53;99218.84;;;15.65;100.00
64713;BME280;51140;45.340;5.980;2023-02-18T12:36:53;99171.44;;;15.82;100.00
64713;BME280;51140;45.340;5.980;2023-02-18T12:39:28;99184.91;;;15.60;100.00
64713;BME280;51140;45.340;5.980;2023-02-18T12:53:17;99135.50;;;15.83;100.00
64713;BME280;51140;45.340;5.980;2023-02-18T13:01:07;99083.19;;;15.64;100.00
64713;BME280;51140;45.340;5.980;2023-02-18T13:04:33;99007.78;;;15.80;100.00
64713;BME280;51140;45.340;5.980;2023-02-18T13:12:14;98988.66;;;15.78;100.00
64713;BME280;51140;45.340;5.980;2023-02-18T13:14:52;99029.63;;;15.66;100.00
64713;BME280;51140;45.340;5.980;2023-02-18T13:17:23;99007.88;;;15.64;100.00
64713;BME280;51140;45.340;5.980;2023-02-18T13:19:55;99012.66;;;15.56;100.00
64713;BME280;51140;45.340;5.980;2023-02-18T13:22:23;98980.94;;;15.61;100.00
64713;BME280;51140;45.340;5.980;2023-02-18T13:24:53;98959.84;;;15.62;100.00
64713;BME280;51140;45.340;5.980;2023-02-18T13:27:42;98988.25;;;15.54;100.00
64713;BME280;51140;45.340;5.980;2023-02-18T13:33:28;98939.38;;;15.68;100.00
64713;BME280;51140;45.340;5.980;2023-02-18T13:36:02;98941.81;;;15.71;100.00
64713;BME280;51140;45.340;5.980;2023-02-18T13:39:02;98972.69;;;15.67;100.00
64713;BME280;51140;45.340;5.980;2023-02-18T13:41:35;98978.88;;;15.66;100.00
64713;BME280;51140;45.340;5.980;2023-02-18T13:44:06;98920.44;;;15.77;100.00
64713;BME280;51140;45.340;5.980;2023-02-18T13:46:55;98894.53;;;15.85;100.00
64713;BME280;51140;45.340;5.980;2023-02-18T13:49:33;98915.84;;;15.80;100.00
64713;BME280;51140;45.340;5.980;2023-02-18T13:52:00;98905.53;;;15.77;100.00
64713;BME280;51140;45.340;5.980;2023-02-18T13:54:29;98906.28;;;15.79;100.00
64713;BME280;51140;45.340;5.980;2023-02-18T13:59:32;98847.72;;;15.77;100.00
64713;BME280;51140;45.340;5.980;2023-02-18T14:02:35;98823.91;;;15.80;100.00
64713;BME280;51140;45.340;5.980;2023-02-18T14:10:01;98792.03;;;15.99;100.00
64713;BME280;51140;45.340;5.980;2023-02-18T14:20:42;98777.00;;;16.15;100.00
64713;BME280;51140;45.340;5.980;2023-02-18T14:33:39;98785.09;;;16.12;100.00
64713;BME280;51140;45.340;5.980;2023-02-18T14:36:20;98730.53;;;16.16;100.00
64713;BME280;51140;45.340;5.980;2023-02-18T14:39:43;98715.63;;;16.29;100.00
64713;BME280;51140;45.340;5.980;2023-02-18T14:47:27;98727.91;;;16.16;100.00
64713;BME280;51140;45.340;5.980;2023-02-18T14:49:58;98735.91;;;16.14;100.00
64713;BME280;51140;45.340;5.980;2023-02-18T14:54:53;98723.72;;;15.99;100.00
64713;BME280;51140;45.340;5.980;2023-02-18T14:57:25;98713.41;;;15.96;100.00
64713;BME280;51140;45.340;5.980;2023-02-18T14:59:57;98668.91;;;16.07;100.00
64713;BME280;51140;45.340;5.980;2023-02-18T15:02:25;98677.53;;;16.09;100.00
64713;BME280;51140;45.340;5.980;2023-02-18T15:04:52;98678.38;;;16.10;100.00
64713;BME280;51140;45.340;5.980;2023-02-18T15:07:20;98690.13;;;16.04;100.00
64713;BME280;51140;45.340;5.980;2023-02-18T15:09:48;98671.00;;;16.02;100.00
64713;BME280;51140;45.340;5.980;2023-02-18T15:12:22;98659.13;;;16.09;100.00
64713;BME280;51140;45.340;5.980;2023-02-18T15:14:51;98687.72;;;16.01;100.00
64713;BME280;51140;45.340;5.980;2023-02-18T15:17:23;98664.13;;;15.99;100.00
64713;BME280;51140;45.340;5.980;2023-02-18T15:19:53;98662.66;;;15.95;100.00
64713;BME280;51140;45.340;5.980;2023-02-18T15:22:24;98676.19;;;15.89;100.00